KBHM/BHM METAR and TAF weather

Enter ICAO airport designator
Station Type Date Time Source
KBHM METAR 2021/09/24 04:53 UTC NOAA

KBHM 240453Z 00000KT 10SM CLR 13/11 A3012 RMK AO2 SLP196 T01330111 $


Station Type Date Time Source
KBHM Decoded METAR 2021/09/24 04:53 UTC NOAA

BIRMINGHAM INT'L AIRPORT, AL, United States (KBHM) 33-34N 086-45W 197M
Sep 24, 2021 - 12:53 AM EDT / 2021.09.24 0453 UTC
Wind: Calm:0
Visibility: 10 mile(s):0
Sky conditions: clear
Temperature: 55.9 F (13.3 C)
Dew Point: 52.0 F (11.1 C)
Relative Humidity: 86%
Pressure (altimeter): 30.12 in. Hg (1019 hPa)
ob: KBHM 240453Z 00000KT 10SM CLR 13/11 A3012 RMK AO2 SLP196 T01330111
cycle: 5

Station Type Date Time Source
KBHM TAF 2021/09/24 06:22 UTC NOAA

TAF KBHM 240520Z 2406/2506 00000KT P6SM SKC
FM241500 01006KT P6SM SKC
FM250100 00000KT P6SM SKC

Example: see airport list